createdAt,value
2022-11-17T00:02:21.029Z,2.39
2022-11-17T00:04:47.572Z,2.41
2022-11-17T00:07:14.166Z,2.46
2022-11-17T00:09:41.502Z,2.35
2022-11-17T00:12:32.472Z,2.41
2022-11-17T00:14:59.464Z,2.37
2022-11-17T00:17:26.015Z,2.30
2022-11-17T00:20:11.043Z,2.34
2022-11-17T00:22:37.507Z,2.32
2022-11-17T00:25:04.724Z,2.27
2022-11-17T00:27:31.218Z,2.31
2022-11-17T00:29:57.727Z,2.33
2022-11-17T00:32:42.961Z,2.40
2022-11-17T00:35:09.490Z,2.52
2022-11-17T00:37:38.114Z,2.25
2022-11-17T00:40:05.982Z,2.23
2022-11-17T00:42:32.637Z,2.17
2022-11-17T00:44:59.112Z,2.17
2022-11-17T00:47:25.588Z,2.14
2022-11-17T00:49:52.100Z,2.15
2022-11-17T00:52:18.610Z,2.09
2022-11-17T00:54:45.076Z,2.15
2022-11-17T00:57:11.653Z,2.08
2022-11-17T00:59:38.154Z,2.08
2022-11-17T01:02:04.651Z,2.11
2022-11-17T01:04:31.367Z,2.10
2022-11-17T01:06:57.976Z,2.13
2022-11-17T01:09:26.346Z,2.14
2022-11-17T01:11:54.018Z,2.06
2022-11-17T01:14:30.308Z,2.09
2022-11-17T01:16:56.869Z,2.04
2022-11-17T01:19:23.776Z,1.95
2022-11-17T01:21:56.420Z,1.98
2022-11-17T01:27:12.970Z,1.92
2022-11-17T01:29:48.739Z,1.93
2022-11-17T01:32:17.372Z,1.86
2022-11-17T01:34:43.849Z,1.87
2022-11-17T01:37:19.431Z,1.91
2022-11-17T01:42:27.424Z,1.80
2022-11-17T01:51:07.384Z,1.73
2022-11-17T01:53:35.615Z,1.83
2022-11-17T01:59:52.261Z,1.82
2022-11-17T02:02:20.481Z,1.69
2022-11-17T02:04:55.676Z,1.65
2022-11-17T02:07:28.376Z,1.63
2022-11-17T02:09:56.176Z,1.70
2022-11-17T02:12:25.833Z,1.73
2022-11-17T02:14:53.990Z,1.69
2022-11-17T02:17:22.892Z,1.58
2022-11-17T02:26:47.180Z,1.57
2022-11-17T02:29:19.794Z,1.50
2022-11-17T02:31:58.834Z,1.53
2022-11-17T02:34:25.295Z,1.52
2022-11-17T02:37:07.843Z,1.50
2022-11-17T02:39:47.342Z,1.54
2022-11-17T02:42:47.833Z,1.47
2022-11-17T02:45:30.449Z,1.53
2022-11-17T02:48:00.899Z,1.53
2022-11-17T02:50:29.666Z,1.55
2022-11-17T02:52:56.812Z,1.53
2022-11-17T02:55:23.555Z,1.45
2022-11-17T02:57:50.022Z,1.41
2022-11-17T03:00:19.055Z,1.39
2022-11-17T03:03:23.012Z,1.41
2022-11-17T03:06:03.947Z,1.37
2022-11-17T03:08:56.829Z,1.31
2022-11-17T03:11:33.314Z,1.27
2022-11-17T03:14:08.769Z,1.25
2022-11-17T03:16:41.062Z,1.19
2022-11-17T03:19:28.911Z,1.21
2022-11-17T03:22:05.248Z,1.20
2022-11-17T03:24:38.896Z,1.15
2022-11-17T03:27:12.730Z,1.13
2022-11-17T03:29:43.674Z,1.10
2022-11-17T03:32:11.179Z,1.04
2022-11-17T03:34:44.506Z,1.02
2022-11-17T03:37:14.311Z,0.98
2022-11-17T03:39:49.511Z,0.93
2022-11-17T03:42:21.559Z,0.92
2022-11-17T03:44:53.185Z,1.01
2022-11-17T03:47:23.625Z,0.93
2022-11-17T03:50:16.244Z,1.06
2022-11-17T03:52:44.925Z,0.85
2022-11-17T03:55:13.274Z,0.94
2022-11-17T03:58:01.107Z,0.82
2022-11-17T04:00:27.781Z,0.98
2022-11-17T04:02:56.198Z,0.85
2022-11-17T04:05:22.867Z,0.86
2022-11-17T04:07:49.647Z,0.84
2022-11-17T04:10:19.595Z,0.72
2022-11-17T04:13:06.356Z,0.94
2022-11-17T04:15:51.475Z,0.73
2022-11-17T04:18:18.981Z,0.71
2022-11-17T04:20:49.176Z,0.68
2022-11-17T04:23:16.240Z,0.62
2022-11-17T04:26:03.386Z,0.72
2022-11-17T04:28:37.797Z,0.64
2022-11-17T04:31:17.560Z,0.65
2022-11-17T04:33:49.547Z,0.62
2022-11-17T04:36:19.507Z,0.68
2022-11-17T04:38:49.212Z,0.65
2022-11-17T04:41:36.332Z,0.69
2022-11-17T04:44:03.691Z,0.67
2022-11-17T04:46:32.203Z,0.71
2022-11-17T04:48:59.047Z,0.69
2022-11-17T04:51:26.958Z,0.72
2022-11-17T04:53:53.709Z,0.76
2022-11-17T04:56:22.164Z,0.74
2022-11-17T04:58:49.607Z,0.66
2022-11-17T05:01:18.070Z,0.71
2022-11-17T05:03:53.590Z,0.83
2022-11-17T05:06:26.690Z,0.68
2022-11-17T05:08:58.163Z,0.74
2022-11-17T05:11:45.403Z,0.66
2022-11-17T05:14:13.515Z,0.74
2022-11-17T05:17:00.526Z,0.67
2022-11-17T05:19:31.786Z,0.65
2022-11-17T05:21:58.364Z,0.65
2022-11-17T05:24:26.498Z,0.74
2022-11-17T05:26:54.153Z,0.63
2022-11-17T05:29:22.701Z,0.73
2022-11-17T05:31:49.772Z,0.62
2022-11-17T05:34:17.606Z,0.59
2022-11-17T05:36:44.590Z,0.66
2022-11-17T05:39:11.264Z,0.60
2022-11-17T05:41:37.811Z,0.61
2022-11-17T05:44:05.047Z,0.61
2022-11-17T05:46:31.838Z,0.61
2022-11-17T05:48:58.951Z,0.60
2022-11-17T05:51:25.563Z,0.59
2022-11-17T05:53:52.124Z,0.63
2022-11-17T05:56:33.779Z,0.58
2022-11-17T05:59:15.007Z,0.56
2022-11-17T06:01:49.555Z,0.58
2022-11-17T06:04:19.554Z,0.55
2022-11-17T06:06:47.754Z,0.53
2022-11-17T06:09:15.421Z,0.54
2022-11-17T06:11:41.947Z,0.53
2022-11-17T06:14:08.474Z,0.61
2022-11-17T06:16:40.978Z,0.59
2022-11-17T06:19:13.362Z,0.55
2022-11-17T06:22:09.841Z,0.54
2022-11-17T06:24:26.424Z,0.67
2022-11-17T06:26:53.206Z,0.73
2022-11-17T06:29:20.099Z,0.56
2022-11-17T06:31:47.403Z,0.52
2022-11-17T06:34:14.299Z,0.59
2022-11-17T06:36:40.882Z,0.57
2022-11-17T06:39:07.418Z,0.65
2022-11-17T06:41:34.034Z,0.58
2022-11-17T06:44:01.111Z,0.61
2022-11-17T06:46:37.986Z,0.54
2022-11-17T06:49:05.514Z,0.52
2022-11-17T06:51:32.090Z,0.55
2022-11-17T06:53:58.643Z,0.52
2022-11-17T06:56:25.226Z,0.53
2022-11-17T06:58:51.861Z,0.48
2022-11-17T07:01:18.459Z,0.48
2022-11-17T07:03:45.047Z,0.58
2022-11-17T07:06:12.540Z,0.71
2022-11-17T07:08:39.830Z,0.45
2022-11-17T07:11:11.652Z,0.45
2022-11-17T07:13:38.904Z,0.39
2022-11-17T07:16:22.907Z,0.36
2022-11-17T07:18:50.793Z,0.38
2022-11-17T07:21:18.198Z,0.42
2022-11-17T07:23:45.940Z,0.34
2022-11-17T07:26:12.557Z,0.50
2022-11-17T07:28:39.325Z,0.41
2022-11-17T07:31:08.059Z,0.31
2022-11-17T07:33:35.124Z,0.31
2022-11-17T07:36:12.538Z,0.29
2022-11-17T07:38:40.152Z,0.37
2022-11-17T07:41:08.118Z,0.32
2022-11-17T07:43:35.462Z,0.22
2022-11-17T07:46:06.942Z,0.35
2022-11-17T07:48:33.919Z,0.29
2022-11-17T07:51:01.712Z,0.25
2022-11-17T07:53:31.822Z,0.24
2022-11-17T07:56:06.822Z,0.28
2022-11-17T07:58:34.011Z,0.33
2022-11-17T08:01:23.000Z,0.35
2022-11-17T08:03:49.501Z,0.15
2022-11-17T08:06:17.053Z,0.19
2022-11-17T08:08:43.640Z,0.12
2022-11-17T08:11:12.026Z,0.19
2022-11-17T08:13:40.133Z,0.29
2022-11-17T08:16:07.887Z,0.19
2022-11-17T08:18:35.797Z,0.17
2022-11-17T08:21:05.269Z,0.34
2022-11-17T08:23:32.586Z,0.21
2022-11-17T08:25:59.395Z,0.18
2022-11-17T08:28:26.395Z,0.17
2022-11-17T08:30:53.002Z,0.17
2022-11-17T08:33:19.526Z,0.24
2022-11-17T08:35:46.021Z,0.15
2022-11-17T08:38:15.438Z,0.18
2022-11-17T08:40:42.797Z,0.27
2022-11-17T08:43:09.453Z,0.23
2022-11-17T08:45:36.032Z,0.26
2022-11-17T08:48:04.129Z,0.21
2022-11-17T08:50:30.710Z,0.34
2022-11-17T08:52:57.284Z,0.30
2022-11-17T08:55:23.965Z,0.33
2022-11-17T08:57:50.523Z,0.30
2022-11-17T09:00:19.896Z,0.28
2022-11-17T09:02:46.447Z,0.26
2022-11-17T09:05:12.994Z,0.31
2022-11-17T09:07:39.670Z,0.21
2022-11-17T09:10:06.864Z,0.26
2022-11-17T09:12:33.349Z,0.27
2022-11-17T09:14:59.870Z,0.23
2022-11-17T09:17:26.507Z,0.30
2022-11-17T09:19:52.999Z,0.30
2022-11-17T09:22:19.991Z,0.24
2022-11-17T09:24:46.582Z,0.21
2022-11-17T09:27:13.944Z,0.11
2022-11-17T09:29:40.447Z,0.18
2022-11-17T09:32:06.930Z,0.10
2022-11-17T09:34:33.582Z,0.04
2022-11-17T09:37:00.124Z,0.00
2022-11-17T09:39:26.707Z,0.15
2022-11-17T09:41:56.218Z,0.27
2022-11-17T09:44:40.764Z,0.05
2022-11-17T09:47:13.141Z,0.04
2022-11-17T09:49:59.379Z,0.12
2022-11-17T09:52:30.033Z,0.05
2022-11-17T09:54:59.708Z,0.13
2022-11-17T09:57:33.244Z,0.25
2022-11-17T10:00:16.254Z,-0.04
2022-11-17T10:02:43.561Z,-0.07
2022-11-17T10:05:20.813Z,-0.01
2022-11-17T10:07:51.374Z,-0.02
2022-11-17T10:10:27.992Z,-0.06
2022-11-17T10:12:58.106Z,0.04
2022-11-17T10:15:30.812Z,-0.02
2022-11-17T10:17:57.425Z,0.16
2022-11-17T10:20:24.383Z,0.04
2022-11-17T10:22:53.978Z,0.11
2022-11-17T10:25:40.708Z,-0.05
2022-11-17T10:28:17.669Z,-0.07
2022-11-17T10:30:53.590Z,0.07
2022-11-17T10:33:35.280Z,0.04
2022-11-17T10:36:03.016Z,0.16
2022-11-17T10:38:30.792Z,0.11
2022-11-17T10:41:00.616Z,0.18
2022-11-17T10:43:36.785Z,0.21
2022-11-17T10:46:16.772Z,0.24
2022-11-17T10:49:01.070Z,0.35
2022-11-17T10:51:32.033Z,0.24
2022-11-17T10:54:02.782Z,0.19
2022-11-17T10:56:30.952Z,0.22
2022-11-17T10:59:34.863Z,0.09
2022-11-17T11:02:37.209Z,0.31
2022-11-17T11:05:09.729Z,0.52
2022-11-17T11:07:37.262Z,0.49
2022-11-17T11:10:17.442Z,0.53
2022-11-17T11:13:06.422Z,0.61
2022-11-17T11:15:35.633Z,0.52
2022-11-17T11:18:07.472Z,0.57
2022-11-17T11:20:50.277Z,0.64
2022-11-17T11:23:35.393Z,0.85
2022-11-17T11:26:17.109Z,0.67
2022-11-17T11:28:54.369Z,0.67
2022-11-17T11:32:02.443Z,0.66
2022-11-17T11:35:07.184Z,0.67
2022-11-17T11:37:46.533Z,0.71
2022-11-17T11:40:26.824Z,0.90
2022-11-17T11:43:05.209Z,0.85
2022-11-17T11:45:59.564Z,0.72
2022-11-17T11:48:36.291Z,0.77
2022-11-17T11:51:16.039Z,0.66
2022-11-17T11:54:00.908Z,0.75
2022-11-17T11:56:41.141Z,0.55
2022-11-17T11:59:15.764Z,0.57
2022-11-17T12:01:48.605Z,0.32
2022-11-17T12:04:20.905Z,0.33
2022-11-17T12:07:01.831Z,0.38
2022-11-17T12:09:31.820Z,0.37
2022-11-17T12:12:02.518Z,0.52
2022-11-17T12:14:32.821Z,0.60
2022-11-17T12:17:13.062Z,0.72
2022-11-17T12:19:54.148Z,0.77
2022-11-17T12:22:29.540Z,0.82
2022-11-17T12:25:16.278Z,0.66
2022-11-17T12:27:49.769Z,0.66
2022-11-17T12:30:34.795Z,0.79
2022-11-17T12:33:05.662Z,0.86
2022-11-17T12:35:37.827Z,0.82
2022-11-17T12:38:16.558Z,0.80
2022-11-17T12:40:51.022Z,0.92
2022-11-17T12:43:25.288Z,1.04
2022-11-17T12:46:10.424Z,1.07
2022-11-17T12:48:40.036Z,1.15
2022-11-17T12:51:23.592Z,1.10
2022-11-17T12:54:16.381Z,1.03
2022-11-17T12:57:07.573Z,1.11
2022-11-17T12:59:37.152Z,1.05
2022-11-17T13:02:28.549Z,1.00
2022-11-17T13:05:01.089Z,0.98
2022-11-17T13:07:27.660Z,0.90
2022-11-17T13:09:57.291Z,0.81
2022-11-17T13:12:28.807Z,0.85
2022-11-17T13:14:57.479Z,0.61
2022-11-17T13:17:32.718Z,0.56
2022-11-17T13:20:17.642Z,0.58
2022-11-17T13:22:58.983Z,0.58
2022-11-17T13:25:25.609Z,0.55
2022-11-17T13:27:57.238Z,0.69
2022-11-17T13:30:28.125Z,0.48
2022-11-17T13:32:55.851Z,0.43
2022-11-17T13:35:25.523Z,0.42
2022-11-17T13:38:04.173Z,0.45
2022-11-17T13:40:33.923Z,0.51
2022-11-17T13:43:03.189Z,0.48
2022-11-17T13:45:29.975Z,0.52
2022-11-17T13:47:56.672Z,0.49
2022-11-17T13:50:26.123Z,0.56
2022-11-17T13:53:06.150Z,0.52
2022-11-17T13:55:34.113Z,0.46
2022-11-17T13:58:07.812Z,0.61
2022-11-17T14:00:34.941Z,0.59
2022-11-17T14:03:06.239Z,0.54
2022-11-17T14:05:34.172Z,0.42
2022-11-17T14:08:14.157Z,0.48
2022-11-17T14:10:40.813Z,0.39
2022-11-17T14:13:19.453Z,0.37
2022-11-17T14:15:53.858Z,0.33
2022-11-17T14:18:30.814Z,0.31
2022-11-17T14:21:14.412Z,0.25
2022-11-17T14:23:42.475Z,0.26
2022-11-17T14:26:21.257Z,0.27
2022-11-17T14:28:49.784Z,0.09
2022-11-17T14:31:16.779Z,0.02
2022-11-17T14:33:43.972Z,-0.11
2022-11-17T14:36:14.666Z,-0.13
2022-11-17T14:38:42.583Z,-0.23
2022-11-17T14:41:09.314Z,-0.26
2022-11-17T14:43:35.903Z,-0.26
2022-11-17T14:46:03.169Z,-0.33
2022-11-17T14:48:30.430Z,-0.39
2022-11-17T14:51:00.397Z,-0.21
2022-11-17T14:53:27.268Z,-0.39
2022-11-17T14:55:53.904Z,-0.42
2022-11-17T14:58:20.757Z,-0.25
2022-11-17T15:00:47.495Z,-0.40
2022-11-17T15:03:14.143Z,-0.32
2022-11-17T15:05:48.099Z,-0.36
2022-11-17T15:08:14.826Z,-0.45
2022-11-17T15:10:45.524Z,-0.40
2022-11-17T15:13:12.397Z,-0.23
2022-11-17T15:15:39.289Z,-0.21
2022-11-17T15:18:05.949Z,-0.29
2022-11-17T15:20:32.476Z,-0.41
2022-11-17T15:23:03.068Z,-0.49
2022-11-17T15:25:29.935Z,-0.44
2022-11-17T15:27:56.548Z,-0.34
2022-11-17T15:30:23.251Z,-0.29
2022-11-17T15:32:52.769Z,-0.41
2022-11-17T15:35:19.280Z,-0.48
2022-11-17T15:37:46.126Z,-0.54
2022-11-17T15:40:17.980Z,-0.67
2022-11-17T15:42:45.839Z,-0.83
2022-11-17T15:45:12.492Z,-1.13
2022-11-17T15:47:38.962Z,-1.09
2022-11-17T15:50:05.872Z,-1.07
2022-11-17T15:52:56.492Z,-1.04
2022-11-17T15:55:19.230Z,-0.97
2022-11-17T15:57:46.062Z,-1.08
2022-11-17T16:00:13.593Z,-1.09
2022-11-17T16:02:41.296Z,-1.11
2022-11-17T16:05:08.100Z,-1.09
2022-11-17T16:07:34.648Z,-1.12
2022-11-17T16:10:01.469Z,-1.16
2022-11-17T16:12:27.933Z,-1.23
2022-11-17T16:14:54.436Z,-1.17
2022-11-17T16:17:20.981Z,-1.15
2022-11-17T16:19:47.509Z,-1.13
2022-11-17T16:22:14.008Z,-0.92
2022-11-17T16:24:40.596Z,-1.07
2022-11-17T16:27:07.106Z,-1.07
2022-11-17T16:29:33.579Z,-1.04
2022-11-17T16:32:00.157Z,-0.94
2022-11-17T16:34:26.794Z,-0.80
2022-11-17T16:36:53.305Z,-0.82
2022-11-17T16:39:20.403Z,-0.90
2022-11-17T16:41:47.352Z,-0.94
2022-11-17T16:44:16.483Z,-0.97
2022-11-17T16:46:45.429Z,-1.02
2022-11-17T16:49:14.522Z,-1.09
2022-11-17T16:51:47.100Z,-1.15
2022-11-17T16:54:13.665Z,-1.09
2022-11-17T16:56:40.330Z,-1.16
2022-11-17T16:59:07.459Z,-1.22
2022-11-17T17:01:35.510Z,-1.21
2022-11-17T17:04:04.553Z,-1.21
2022-11-17T17:06:31.400Z,-1.20
2022-11-17T17:09:03.614Z,-1.20
2022-11-17T17:11:32.131Z,-1.31
2022-11-17T17:14:00.363Z,-1.14
2022-11-17T17:16:27.056Z,-1.08
2022-11-17T17:19:01.793Z,-1.16
2022-11-17T17:21:29.324Z,-1.19
2022-11-17T17:23:56.334Z,-1.26
2022-11-17T17:26:24.777Z,-1.24
2022-11-17T17:28:54.539Z,-1.12
2022-11-17T17:31:22.611Z,-1.11
2022-11-17T17:33:50.747Z,-0.95
2022-11-17T17:36:20.208Z,-1.21
2022-11-17T17:38:51.815Z,-1.25
2022-11-17T17:41:23.225Z,-1.02
2022-11-17T17:43:56.179Z,-1.24
2022-11-17T17:46:23.247Z,-1.44
2022-11-17T17:48:49.947Z,-1.53
2022-11-17T17:51:19.444Z,-1.48
2022-11-17T17:53:50.177Z,-1.55
2022-11-17T17:56:19.180Z,-1.45
2022-11-17T17:58:48.089Z,-1.43
2022-11-17T18:01:20.465Z,-1.46
2022-11-17T18:03:48.781Z,-1.45
2022-11-17T18:06:17.832Z,-1.37
2022-11-17T18:08:45.297Z,-1.29
2022-11-17T18:11:14.109Z,-1.41
2022-11-17T18:13:42.517Z,-1.39
2022-11-17T18:16:15.457Z,-1.35
2022-11-17T18:18:43.088Z,-1.32
2022-11-17T18:21:12.633Z,-1.25
2022-11-17T18:23:39.651Z,-1.22
2022-11-17T18:26:15.638Z,-1.24
2022-11-17T18:28:44.379Z,-1.16
2022-11-17T18:31:11.385Z,-1.00
2022-11-17T18:33:37.980Z,-1.33
2022-11-17T18:36:07.043Z,-1.29
2022-11-17T18:38:35.832Z,-1.30
2022-11-17T18:41:07.354Z,-1.36
2022-11-17T18:43:34.197Z,-1.27
2022-11-17T18:46:05.092Z,-1.27
2022-11-17T18:48:36.603Z,-1.32
2022-11-17T18:51:19.235Z,-1.36
2022-11-17T18:53:47.220Z,-1.45
2022-11-17T18:56:16.289Z,-1.42
2022-11-17T18:58:43.588Z,-1.32
2022-11-17T19:01:11.655Z,-1.35
2022-11-17T19:03:39.573Z,-1.16
2022-11-17T19:06:07.704Z,-1.37
2022-11-17T19:08:35.768Z,-1.37
2022-11-17T19:11:06.234Z,-1.38
2022-11-17T19:13:35.524Z,-1.33
2022-11-17T19:16:22.460Z,-1.28
2022-11-17T19:18:50.816Z,-1.15
2022-11-17T19:21:22.016Z,-1.32
2022-11-17T19:23:51.751Z,-1.30
2022-11-17T19:26:24.974Z,-1.22
2022-11-17T19:28:55.946Z,-1.10
2022-11-17T19:31:22.879Z,-1.19
2022-11-17T19:33:50.275Z,-1.31
2022-11-17T19:36:19.873Z,-1.12
2022-11-17T19:38:51.183Z,-1.04
2022-11-17T19:41:20.638Z,-1.24
2022-11-17T19:43:47.230Z,-1.13
2022-11-17T19:46:16.822Z,-1.18
2022-11-17T19:48:44.053Z,-1.20
2022-11-17T19:51:13.521Z,-1.24
2022-11-17T19:53:40.489Z,-1.24
2022-11-17T19:56:07.908Z,-1.27
2022-11-17T19:58:34.847Z,-1.26
2022-11-17T20:01:09.606Z,-1.26
2022-11-17T20:03:37.309Z,-1.29
2022-11-17T20:06:04.750Z,-1.28
2022-11-17T20:08:32.098Z,-1.33
2022-11-17T20:11:13.512Z,-1.27
2022-11-17T20:13:41.846Z,-1.29
2022-11-17T20:16:19.324Z,-1.19
2022-11-17T20:18:50.125Z,-1.11
2022-11-17T20:21:17.120Z,-1.27
2022-11-17T20:23:43.768Z,-1.32
2022-11-17T20:26:16.275Z,-1.33
2022-11-17T20:28:43.480Z,-1.31
2022-11-17T20:31:15.137Z,-1.24
2022-11-17T20:33:43.012Z,-1.17
2022-11-17T20:36:13.358Z,-1.18
2022-11-17T20:38:40.029Z,-1.02
2022-11-17T20:41:07.286Z,-1.09
2022-11-17T20:43:34.992Z,-1.20
2022-11-17T20:46:02.102Z,-1.09
2022-11-17T20:48:34.251Z,-1.20
2022-11-17T20:51:08.018Z,-1.27
2022-11-17T20:53:34.701Z,-1.21
2022-11-17T20:56:03.057Z,-1.19
2022-11-17T20:58:30.759Z,-1.20
2022-11-17T21:00:57.825Z,-1.13
2022-11-17T21:03:25.995Z,-1.17
2022-11-17T21:05:58.822Z,-1.15
2022-11-17T21:08:30.079Z,-1.11
2022-11-17T21:10:57.847Z,-1.20
2022-11-17T21:13:25.414Z,-1.25
2022-11-17T21:16:12.082Z,-1.30
2022-11-17T21:18:46.062Z,-1.43
2022-11-17T21:21:13.446Z,-1.44
2022-11-17T21:23:41.190Z,-1.54
2022-11-17T21:26:13.384Z,-1.61
2022-11-17T21:28:41.667Z,-1.67
2022-11-17T21:31:23.808Z,-1.76
2022-11-17T21:34:01.600Z,-1.76
2022-11-17T21:36:30.257Z,-1.74
2022-11-17T21:38:57.533Z,-1.70
2022-11-17T21:41:35.391Z,-1.72
2022-11-17T21:44:03.363Z,-1.70
2022-11-17T21:46:32.192Z,-1.74
2022-11-17T21:49:00.229Z,-1.76
2022-11-17T21:51:35.107Z,-1.77
2022-11-17T21:54:06.722Z,-1.72
2022-11-17T21:56:33.653Z,-1.71
2022-11-17T21:59:10.596Z,-1.75
2022-11-17T22:01:37.460Z,-1.77
2022-11-17T22:04:04.969Z,-1.78
2022-11-17T22:06:31.808Z,-1.85
2022-11-17T22:08:59.424Z,-1.84
2022-11-17T22:11:38.149Z,-1.83
2022-11-17T22:14:13.717Z,-1.81
2022-11-17T22:16:52.975Z,-1.78
2022-11-17T22:19:22.132Z,-1.75
2022-11-17T22:21:51.196Z,-1.76
2022-11-17T22:24:18.303Z,-1.86
2022-11-17T22:26:45.418Z,-1.92
2022-11-17T22:29:20.168Z,-1.96
2022-11-17T22:31:48.757Z,-1.93
2022-11-17T22:34:15.816Z,-1.90
2022-11-17T22:36:42.594Z,-1.83
2022-11-17T22:39:09.478Z,-1.79
2022-11-17T22:41:36.285Z,-1.84
2022-11-17T22:44:03.217Z,-1.98
2022-11-17T22:46:29.967Z,-2.04
2022-11-17T22:49:00.816Z,-2.03
2022-11-17T22:51:48.798Z,-2.05
2022-11-17T22:54:15.329Z,-2.04
2022-11-17T22:56:41.995Z,-2.04
2022-11-17T22:59:08.828Z,-2.00
2022-11-17T23:01:35.385Z,-2.01
2022-11-17T23:04:01.997Z,-1.97
2022-11-17T23:06:28.651Z,-1.92
2022-11-17T23:08:57.468Z,-1.97
2022-11-17T23:11:40.037Z,-1.93
2022-11-17T23:14:09.138Z,-1.97
2022-11-17T23:16:39.204Z,-2.02
2022-11-17T23:19:06.801Z,-1.96
2022-11-17T23:21:33.419Z,-1.97
2022-11-17T23:24:00.019Z,-2.00
2022-11-17T23:26:26.856Z,-2.04
2022-11-17T23:28:53.490Z,-1.97
2022-11-17T23:31:20.483Z,-1.89
2022-11-17T23:33:47.690Z,-1.95
2022-11-17T23:36:18.560Z,-1.85
2022-11-17T23:38:46.038Z,-1.86
2022-11-17T23:41:14.788Z,-1.85
2022-11-17T23:43:41.871Z,-1.86
2022-11-17T23:46:11.874Z,-1.77
2022-11-17T23:48:38.696Z,-1.76
2022-11-17T23:51:10.695Z,-1.73
2022-11-17T23:53:37.590Z,-1.47
2022-11-17T23:56:05.213Z,-1.65
2022-11-17T23:58:32.138Z,-1.76
